createdAt,value
2018-05-29T00:00:10.545Z,59.38
2018-05-29T00:00:36.706Z,59.28
2018-05-29T00:01:02.848Z,59.19
2018-05-29T00:01:28.989Z,59.58
2018-05-29T00:01:55.133Z,59.48
2018-05-29T00:02:21.273Z,59.09
2018-05-29T00:02:47.414Z,59.38
2018-05-29T00:03:13.555Z,59.36
2018-05-29T00:03:39.703Z,59.36
2018-05-29T00:04:05.841Z,59.26
2018-05-29T00:04:31.977Z,59.58
2018-05-29T00:04:58.121Z,59.26
2018-05-29T00:05:24.263Z,59.55
2018-05-29T00:05:50.408Z,59.55
2018-05-29T00:06:16.552Z,59.64
2018-05-29T00:06:42.699Z,59.55
2018-05-29T00:07:08.842Z,59.36
2018-05-29T00:07:35.035Z,59.77
2018-05-29T00:08:01.180Z,59.19
2018-05-29T00:08:27.320Z,59.28
2018-05-29T00:08:53.466Z,59.58
2018-05-29T00:09:19.604Z,59.19
2018-05-29T00:09:45.770Z,59.16
2018-05-29T00:10:12.001Z,59.67
2018-05-29T00:10:38.156Z,59.67
2018-05-29T00:11:04.302Z,59.58
2018-05-29T00:11:30.462Z,59.55
2018-05-29T00:11:56.612Z,59.58
2018-05-29T00:12:22.774Z,59.28
2018-05-29T00:12:48.920Z,59.48
2018-05-29T00:13:15.059Z,59.48
2018-05-29T00:13:41.198Z,59.48
2018-05-29T00:14:07.336Z,59.38
2018-05-29T00:14:33.491Z,59.45
2018-05-29T00:14:59.639Z,59.74
2018-05-29T00:15:25.781Z,59.94
2018-05-29T00:15:51.927Z,59.77
2018-05-29T00:16:18.086Z,60.16
2018-05-29T00:16:44.274Z,60.55
2018-05-29T00:17:10.418Z,59.97
2018-05-29T00:17:36.568Z,59.48
2018-05-29T00:18:02.711Z,59.77
2018-05-29T00:18:28.909Z,59.48
2018-05-29T00:18:55.047Z,59.48
2018-05-29T00:19:21.220Z,59.74
2018-05-29T00:19:47.398Z,59.58
2018-05-29T00:20:13.525Z,59.97
2018-05-29T00:20:39.670Z,59.87
2018-05-29T00:21:05.836Z,59.45
2018-05-29T00:21:32.004Z,60.52
2018-05-29T00:21:58.403Z,60.13
2018-05-29T00:22:24.565Z,60.23
2018-05-29T00:22:50.789Z,60.23
2018-05-29T00:23:16.942Z,59.74
2018-05-29T00:23:43.228Z,60.03
2018-05-29T00:24:09.373Z,59.94
2018-05-29T00:24:35.588Z,59.84
2018-05-29T00:25:01.698Z,59.84
2018-05-29T00:25:27.868Z,60.23
2018-05-29T00:25:54.026Z,60.13
2018-05-29T00:26:20.200Z,60.13
2018-05-29T00:26:46.341Z,59.94
2018-05-29T00:27:12.507Z,60.32
2018-05-29T00:27:38.691Z,60.32
2018-05-29T00:28:04.873Z,59.94
2018-05-29T00:28:31.035Z,59.94
2018-05-29T00:28:57.175Z,60.13
2018-05-29T00:29:23.351Z,60.03
2018-05-29T00:29:49.499Z,60.42
2018-05-29T00:30:15.655Z,60.13
2018-05-29T00:30:41.820Z,60.32
2018-05-29T00:31:08.043Z,60.71
2018-05-29T00:31:34.229Z,60.32
2018-05-29T00:32:00.389Z,60.61
2018-05-29T00:32:26.546Z,60.71
2018-05-29T00:32:52.695Z,60.52
2018-05-29T00:33:18.846Z,61
2018-05-29T00:33:45.011Z,61
2018-05-29T00:34:11.181Z,61
2018-05-29T00:34:37.330Z,61
2018-05-29T00:35:03.467Z,61.19
2018-05-29T00:35:29.606Z,60.81
2018-05-29T00:35:55.745Z,60.81
2018-05-29T00:36:21.889Z,61
2018-05-29T00:36:48.038Z,60.61
2018-05-29T00:37:14.173Z,61
2018-05-29T00:37:40.317Z,61.1
2018-05-29T00:38:06.460Z,60.61
2018-05-29T00:38:32.626Z,60.42
2018-05-29T00:38:58.763Z,60.42
2018-05-29T00:39:24.950Z,61
2018-05-29T00:39:51.090Z,60.61
2018-05-29T00:40:17.234Z,61
2018-05-29T00:40:43.398Z,60.91
2018-05-29T00:41:09.531Z,60.42
2018-05-29T00:41:35.674Z,60.32
2018-05-29T00:42:01.847Z,60.13
2018-05-29T00:42:28.009Z,60.23
2018-05-29T00:42:54.176Z,60.42
2018-05-29T00:43:20.340Z,60.13
2018-05-29T00:43:46.483Z,60.91
2018-05-29T00:44:12.619Z,60.91
2018-05-29T00:44:38.795Z,60.52
2018-05-29T00:45:04.930Z,60.23
2018-05-29T00:45:31.073Z,60.52
2018-05-29T00:45:57.234Z,60.32
2018-05-29T00:46:23.371Z,60.13
2018-05-29T00:46:49.523Z,60.71
2018-05-29T00:47:15.716Z,60.71
2018-05-29T00:47:41.873Z,61
2018-05-29T00:48:08.008Z,60.91
2018-05-29T00:48:34.154Z,61.19
2018-05-29T00:49:00.295Z,60.61
2018-05-29T00:49:26.450Z,60.58
2018-05-29T00:49:54.163Z,61.26
2018-05-29T00:50:21.650Z,61.29
2018-05-29T00:50:48.106Z,61.07
2018-05-29T00:51:14.253Z,61.29
2018-05-29T00:51:40.392Z,61.19
2018-05-29T00:52:06.541Z,60.88
2018-05-29T00:52:32.710Z,61
2018-05-29T00:52:58.845Z,61.19
2018-05-29T00:53:24.990Z,61.26
2018-05-29T00:53:51.122Z,61.17
2018-05-29T00:54:17.269Z,61.29
2018-05-29T00:54:43.427Z,61.19
2018-05-29T00:55:09.558Z,61.19
2018-05-29T00:55:35.705Z,61.29
2018-05-29T00:56:01.879Z,61.94
2018-05-29T00:56:28.031Z,61.58
2018-05-29T00:56:54.191Z,61.29
2018-05-29T00:57:20.337Z,61.17
2018-05-29T00:57:46.490Z,61.1
2018-05-29T00:58:12.622Z,61.65
2018-05-29T00:58:38.792Z,61.65
2018-05-29T00:59:04.906Z,61.78
2018-05-29T00:59:31.071Z,61.65
2018-05-29T00:59:57.214Z,61.65
2018-05-29T01:00:23.352Z,61.17
2018-05-29T01:00:49.491Z,61.65
2018-05-29T01:01:15.628Z,61.75
2018-05-29T01:01:41.803Z,61.75
2018-05-29T01:02:07.970Z,61.85
2018-05-29T01:02:34.139Z,61.75
2018-05-29T01:03:00.309Z,61.75
2018-05-29T01:03:26.497Z,61.75
2018-05-29T01:03:52.653Z,61.46
2018-05-29T01:04:18.852Z,61.94
2018-05-29T01:04:44.977Z,61.55
2018-05-29T01:05:11.117Z,61.85
2018-05-29T01:05:37.257Z,61.94
2018-05-29T01:06:03.426Z,61.94
2018-05-29T01:06:29.571Z,62.13
2018-05-29T01:06:55.703Z,61.94
2018-05-29T01:07:21.846Z,61.85
2018-05-29T01:07:47.993Z,61.55
2018-05-29T01:08:14.141Z,61.46
2018-05-29T01:08:40.276Z,61.46
2018-05-29T01:09:06.416Z,61.55
2018-05-29T01:09:32.555Z,61.36
2018-05-29T01:09:58.701Z,61.75
2018-05-29T01:10:24.840Z,61.36
2018-05-29T01:10:50.986Z,61.55
2018-05-29T01:11:17.125Z,61.55
2018-05-29T01:11:43.264Z,61.55
2018-05-29T01:12:09.408Z,61.65
2018-05-29T01:12:35.593Z,61.94
2018-05-29T01:13:01.742Z,61.78
2018-05-29T01:13:27.875Z,61.75
2018-05-29T01:13:54.023Z,61.75
2018-05-29T01:14:20.161Z,61.94
2018-05-29T01:14:46.321Z,61.98
2018-05-29T01:15:12.487Z,61.58
2018-05-29T01:15:38.687Z,61.49
2018-05-29T01:16:04.828Z,61.68
2018-05-29T01:16:30.971Z,61.65
2018-05-29T01:16:57.120Z,61.88
2018-05-29T01:17:23.278Z,61.68
2018-05-29T01:17:49.422Z,61.68
2018-05-29T01:18:15.567Z,61.58
2018-05-29T01:18:41.706Z,61.85
2018-05-29T01:19:07.845Z,61.94
2018-05-29T01:19:34.017Z,61.78
2018-05-29T01:20:00.183Z,61.58
2018-05-29T01:20:26.339Z,61.75
2018-05-29T01:20:52.477Z,61.65
2018-05-29T01:21:18.615Z,62.04
2018-05-29T01:21:44.769Z,61.55
2018-05-29T01:22:10.903Z,61.58
2018-05-29T01:22:37.077Z,61.75
2018-05-29T01:23:03.216Z,61.55
2018-05-29T01:23:29.387Z,61.94
2018-05-29T01:23:55.555Z,61.98
2018-05-29T01:24:21.693Z,61.46
2018-05-29T01:24:47.843Z,61.94
2018-05-29T01:25:13.994Z,61.85
2018-05-29T01:25:40.135Z,61.85
2018-05-29T01:26:06.279Z,61.85
2018-05-29T01:26:32.416Z,62.13
2018-05-29T01:26:58.557Z,61.85
2018-05-29T01:27:24.702Z,61.78
2018-05-29T01:27:50.867Z,61.94
2018-05-29T01:28:17.040Z,61.58
2018-05-29T01:28:43.178Z,61.65
2018-05-29T01:29:09.314Z,61.75
2018-05-29T01:29:35.455Z,62.04
2018-05-29T01:30:01.600Z,62.23
2018-05-29T01:30:27.736Z,62.33
2018-05-29T01:30:53.913Z,62.52
2018-05-29T01:31:20.049Z,62.13
2018-05-29T01:31:46.212Z,62.23
2018-05-29T01:32:12.339Z,62.33
2018-05-29T01:32:38.506Z,62.13
2018-05-29T01:33:04.650Z,62.23
2018-05-29T01:33:30.815Z,62.04
2018-05-29T01:33:56.955Z,62.04
2018-05-29T01:34:23.094Z,62.33
2018-05-29T01:34:49.241Z,62.33
2018-05-29T01:35:15.401Z,62.04
2018-05-29T01:35:41.541Z,62.04
2018-05-29T01:36:07.707Z,62.43
2018-05-29T01:36:33.857Z,62.91
2018-05-29T01:37:00.036Z,62.82
2018-05-29T01:37:26.175Z,62.62
2018-05-29T01:37:52.337Z,62.91
2018-05-29T01:38:18.474Z,62.72
2018-05-29T01:38:44.640Z,62.52
2018-05-29T01:39:10.852Z,62.52
2018-05-29T01:39:36.982Z,62.82
2018-05-29T01:40:03.206Z,62.52
2018-05-29T01:40:29.285Z,62.91
2018-05-29T01:40:55.439Z,62.43
2018-05-29T01:41:21.576Z,62.62
2018-05-29T01:41:47.770Z,62.43
2018-05-29T01:42:13.925Z,62.82
2018-05-29T01:42:40.071Z,62.72
2018-05-29T01:43:06.215Z,62.72
2018-05-29T01:43:32.353Z,62.72
2018-05-29T01:43:58.491Z,62.72
2018-05-29T01:44:24.638Z,63.01
2018-05-29T01:44:50.774Z,62.91
2018-05-29T01:45:16.921Z,62.33
2018-05-29T01:45:43.055Z,62.52
2018-05-29T01:46:09.196Z,62.91
2018-05-29T01:46:35.345Z,62.82
2018-05-29T01:47:01.486Z,62.52
2018-05-29T01:47:27.637Z,62.43
2018-05-29T01:47:53.798Z,62.91
2018-05-29T01:48:19.937Z,62.52
2018-05-29T01:48:46.103Z,62.62
2018-05-29T01:49:12.293Z,63.07
2018-05-29T01:49:38.426Z,62.88
2018-05-29T01:50:04.566Z,62.79
2018-05-29T01:50:30.723Z,63.65
2018-05-29T01:50:56.867Z,63.95
2018-05-29T01:51:23.004Z,63.95
2018-05-29T01:51:49.145Z,64.4
2018-05-29T01:52:15.290Z,64.59
2018-05-29T01:52:41.434Z,63.85
2018-05-29T01:53:07.573Z,64.04
2018-05-29T01:53:33.716Z,64.04
2018-05-29T01:53:59.856Z,64.79
2018-05-29T01:54:26.048Z,64.72
2018-05-29T01:54:52.187Z,63.85
2018-05-29T01:55:18.335Z,64.01
2018-05-29T01:55:44.481Z,63.65
2018-05-29T01:56:10.635Z,63.65
2018-05-29T01:56:36.784Z,63.65
2018-05-29T01:57:02.923Z,64.5
2018-05-29T01:57:29.061Z,64.69
2018-05-29T01:57:55.203Z,64.3
2018-05-29T01:58:21.352Z,64.2
2018-05-29T01:58:47.496Z,64.53
2018-05-29T01:59:13.640Z,64.69
2018-05-29T01:59:39.800Z,64.04
2018-05-29T02:00:05.945Z,64.59
2018-05-29T02:00:32.082Z,64.5
2018-05-29T02:00:58.222Z,64.59
2018-05-29T02:01:24.395Z,64.24
2018-05-29T02:01:50.556Z,64.34
2018-05-29T02:02:16.699Z,64.4
2018-05-29T02:02:42.873Z,64.5
2018-05-29T02:03:09.009Z,64.34
2018-05-29T02:03:35.157Z,64.59
2018-05-29T02:04:01.317Z,64.4
2018-05-29T02:04:27.523Z,64.59
2018-05-29T02:04:53.616Z,64.59
2018-05-29T02:05:19.768Z,64.11
2018-05-29T02:05:45.931Z,64.11
2018-05-29T02:06:12.122Z,64.5
2018-05-29T02:06:38.261Z,64.89
2018-05-29T02:07:04.409Z,64.62
2018-05-29T02:07:30.571Z,64.59
2018-05-29T02:07:56.718Z,64.5
2018-05-29T02:08:22.853Z,64.3
2018-05-29T02:08:49.004Z,64.5
2018-05-29T02:09:15.142Z,64.59
2018-05-29T02:09:41.305Z,64.4
2018-05-29T02:10:07.526Z,64.3
2018-05-29T02:10:33.705Z,64.11
2018-05-29T02:10:59.845Z,64.5
2018-05-29T02:11:25.983Z,64.5
2018-05-29T02:11:52.123Z,64.59
2018-05-29T02:12:18.264Z,64.4
2018-05-29T02:12:44.444Z,64.89
2018-05-29T02:13:10.606Z,64.69
2018-05-29T02:13:36.758Z,65.17
2018-05-29T02:14:02.897Z,65.17
2018-05-29T02:14:29.072Z,64.5
2018-05-29T02:14:55.220Z,64.5
2018-05-29T02:15:21.384Z,64.89
2018-05-29T02:15:47.542Z,64.89
2018-05-29T02:16:13.685Z,64.89
2018-05-29T02:16:39.853Z,64.69
2018-05-29T02:17:05.993Z,64.5
2018-05-29T02:17:32.132Z,64.79
2018-05-29T02:17:58.293Z,64.3
2018-05-29T02:18:24.475Z,64.5
2018-05-29T02:18:50.624Z,64.4
2018-05-29T02:19:16.827Z,64.3
2018-05-29T02:19:42.963Z,64.11
2018-05-29T02:20:09.108Z,64.62
2018-05-29T02:20:35.257Z,64.59
2018-05-29T02:21:01.396Z,64.62
2018-05-29T02:21:27.537Z,64.62
2018-05-29T02:21:53.677Z,64.53
2018-05-29T02:22:19.854Z,64.5
2018-05-29T02:22:46.001Z,64.11
2018-05-29T02:23:12.167Z,64.4
2018-05-29T02:23:38.355Z,64.79
2018-05-29T02:24:04.521Z,64.79
2018-05-29T02:24:30.667Z,64.79
2018-05-29T02:24:56.851Z,64.79
2018-05-29T02:25:22.983Z,64.5
2018-05-29T02:25:49.134Z,64.5
2018-05-29T02:26:15.277Z,64.4
2018-05-29T02:26:41.427Z,64.5
2018-05-29T02:27:07.628Z,64.59
2018-05-29T02:27:33.768Z,64.79
2018-05-29T02:27:59.938Z,64.69
2018-05-29T02:28:26.102Z,64.53
2018-05-29T02:28:52.243Z,64.59
2018-05-29T02:29:18.381Z,64.59
2018-05-29T02:29:44.523Z,64.53
2018-05-29T02:30:10.685Z,64.72
2018-05-29T02:30:36.858Z,64.5
2018-05-29T02:31:03.028Z,64.4
2018-05-29T02:31:29.164Z,64.62
2018-05-29T02:31:55.409Z,64.5
2018-05-29T02:32:21.568Z,64.34
2018-05-29T02:32:47.759Z,64.53
2018-05-29T02:33:13.918Z,64.3
2018-05-29T02:33:40.060Z,64.59
2018-05-29T02:34:06.224Z,64.43
2018-05-29T02:34:32.372Z,64.43
2018-05-29T02:34:58.523Z,64.24
2018-05-29T02:35:24.693Z,64.5
2018-05-29T02:35:50.844Z,64.53
2018-05-29T02:36:17.045Z,64.3
2018-05-29T02:36:43.201Z,64.53
2018-05-29T02:37:09.370Z,64.59
2018-05-29T02:37:35.537Z,64.53
2018-05-29T02:38:01.700Z,64.59
2018-05-29T02:38:27.846Z,64.5
2018-05-29T02:38:54.014Z,64.3
2018-05-29T02:39:20.217Z,64.89
2018-05-29T02:39:46.367Z,64.5
2018-05-29T02:40:12.520Z,64.5
2018-05-29T02:40:38.739Z,64.89
2018-05-29T02:41:04.975Z,64.59
2018-05-29T02:41:31.127Z,64.59
2018-05-29T02:41:57.255Z,64.5
2018-05-29T02:42:23.397Z,64.5
2018-05-29T02:42:49.562Z,64.5
2018-05-29T02:43:15.728Z,64.5
2018-05-29T02:43:41.896Z,64.5
2018-05-29T02:44:08.104Z,64.89
2018-05-29T02:44:34.253Z,65.27
2018-05-29T02:45:00.414Z,64.98
2018-05-29T02:45:26.601Z,65.17
2018-05-29T02:45:52.758Z,64.98
2018-05-29T02:46:18.954Z,65.47
2018-05-29T02:46:45.115Z,65.56
2018-05-29T02:47:11.309Z,65.75
2018-05-29T02:47:37.451Z,65.75
2018-05-29T02:48:03.660Z,65.75
2018-05-29T02:48:29.825Z,65.56
2018-05-29T02:48:56.064Z,65.27
2018-05-29T02:49:22.208Z,64.98
2018-05-29T02:49:48.352Z,64.98
2018-05-29T02:50:14.492Z,64.79
2018-05-29T02:50:40.634Z,64.98
2018-05-29T02:51:06.783Z,64.98
2018-05-29T02:51:32.949Z,64.98
2018-05-29T02:51:59.132Z,64.98
2018-05-29T02:52:25.308Z,65.08
2018-05-29T02:52:51.468Z,65.27
2018-05-29T02:53:17.616Z,65.75
2018-05-29T02:53:43.753Z,65.56
2018-05-29T02:54:09.913Z,65.56
2018-05-29T02:54:36.055Z,65.56
2018-05-29T02:55:02.196Z,65.56
2018-05-29T02:55:28.345Z,65.37
2018-05-29T02:55:54.494Z,65.17
2018-05-29T02:56:20.643Z,65.37
2018-05-29T02:56:46.781Z,65.17
2018-05-29T02:57:12.923Z,65.47
2018-05-29T02:57:39.057Z,65.56
2018-05-29T02:58:05.192Z,65.66
2018-05-29T02:58:31.368Z,65.56
2018-05-29T02:58:57.511Z,65.56
2018-05-29T02:59:23.659Z,65.75
2018-05-29T02:59:49.802Z,64.98
2018-05-29T03:00:15.970Z,65.27
2018-05-29T03:00:42.132Z,65.75
2018-05-29T03:01:08.473Z,65.27
2018-05-29T03:01:34.691Z,65.66
2018-05-29T03:02:01.049Z,65.27
2018-05-29T03:02:27.370Z,65.56
2018-05-29T03:02:53.697Z,65.27
2018-05-29T03:03:20.101Z,65.37
2018-05-29T03:03:46.417Z,65.47
2018-05-29T03:04:12.901Z,65.95
2018-05-29T03:04:39.240Z,65.66
2018-05-29T03:05:05.444Z,65.56
2018-05-29T03:05:31.660Z,65.75
2018-05-29T03:05:58.002Z,65.66
2018-05-29T03:06:24.181Z,65.56
2018-05-29T03:06:50.319Z,65.75
2018-05-29T03:07:16.465Z,65.37
2018-05-29T03:07:42.645Z,65.66
2018-05-29T03:08:08.800Z,65.47
2018-05-29T03:08:34.932Z,65.27
2018-05-29T03:09:01.071Z,65.66
2018-05-29T03:09:27.209Z,65.75
2018-05-29T03:09:53.358Z,65.56
2018-05-29T03:10:19.511Z,65.66
2018-05-29T03:10:45.665Z,65.85
2018-05-29T03:11:11.804Z,65.66
2018-05-29T03:11:37.948Z,65.66
2018-05-29T03:12:04.074Z,65.85
2018-05-29T03:12:30.241Z,65.92
2018-05-29T03:12:56.414Z,65.75
2018-05-29T03:13:22.604Z,65.82
2018-05-29T03:13:48.749Z,65.82
2018-05-29T03:14:14.902Z,65.66
2018-05-29T03:14:41.076Z,65.75
2018-05-29T03:15:07.236Z,65.53
2018-05-29T03:15:33.411Z,66.02
2018-05-29T03:15:59.563Z,65.95
2018-05-29T03:16:25.709Z,66.02
2018-05-29T03:16:51.871Z,66.02
2018-05-29T03:17:17.999Z,65.92
2018-05-29T03:17:44.141Z,66.11
2018-05-29T03:18:10.332Z,66.02
2018-05-29T03:18:36.496Z,66.69
2018-05-29T03:19:02.635Z,66.78
2018-05-29T03:19:28.780Z,66.69
2018-05-29T03:19:54.922Z,66.69
2018-05-29T03:20:21.079Z,66.69
2018-05-29T03:20:47.221Z,66.6
2018-05-29T03:21:13.392Z,66.4
2018-05-29T03:21:39.569Z,66.6
2018-05-29T03:22:05.722Z,67.08
2018-05-29T03:22:31.855Z,66.88
2018-05-29T03:22:58.022Z,67.18
2018-05-29T03:23:24.155Z,67.18
2018-05-29T03:23:50.301Z,67.08
2018-05-29T03:24:16.445Z,66.88
2018-05-29T03:24:42.636Z,66.78
2018-05-29T03:25:08.771Z,66.98
2018-05-29T03:25:34.957Z,67.18
2018-05-29T03:26:01.098Z,66.78
2018-05-29T03:26:27.279Z,66.88
2018-05-29T03:26:53.407Z,66.6
2018-05-29T03:27:19.608Z,66.88
2018-05-29T03:27:45.736Z,67.08
2018-05-29T03:28:11.909Z,66.98
2018-05-29T03:28:38.088Z,67.08
2018-05-29T03:29:04.234Z,66.2
2018-05-29T03:29:30.393Z,66.69
2018-05-29T03:29:56.539Z,66.6
2018-05-29T03:30:22.706Z,66.78
2018-05-29T03:30:48.907Z,66.88
2018-05-29T03:31:15.061Z,67.08
2018-05-29T03:31:41.233Z,66.88
2018-05-29T03:32:07.376Z,66.69
2018-05-29T03:32:33.540Z,66.98
2018-05-29T03:32:59.673Z,66.88
2018-05-29T03:33:25.821Z,67.27
2018-05-29T03:33:51.965Z,66.88
2018-05-29T03:34:18.191Z,66.88
2018-05-29T03:34:44.342Z,66.88
2018-05-29T03:35:10.492Z,66.69
2018-05-29T03:35:36.637Z,66.98
2018-05-29T03:36:02.804Z,66.98
2018-05-29T03:36:28.940Z,67.08
2018-05-29T03:36:55.079Z,67.08
2018-05-29T03:37:21.217Z,66.78
2018-05-29T03:37:47.382Z,67.08
2018-05-29T03:38:13.542Z,67.08
2018-05-29T03:38:39.713Z,67.27
2018-05-29T03:39:05.877Z,66.88
2018-05-29T03:39:32.015Z,66.69
2018-05-29T03:39:58.190Z,67.08
2018-05-29T03:40:24.354Z,67.05
2018-05-29T03:40:50.493Z,67.33
2018-05-29T03:41:16.645Z,67.14
2018-05-29T03:41:42.789Z,67.43
2018-05-29T03:42:08.946Z,67.14
2018-05-29T03:42:35.082Z,67.43
2018-05-29T03:43:01.262Z,67.53
2018-05-29T03:43:27.397Z,67.72
2018-05-29T03:43:53.544Z,67.82
2018-05-29T03:44:19.685Z,67.43
2018-05-29T03:44:45.824Z,67.24
2018-05-29T03:45:11.968Z,67.91
2018-05-29T03:45:38.142Z,67.91
2018-05-29T03:46:04.273Z,68.11
2018-05-29T03:46:30.446Z,68.11
2018-05-29T03:46:56.605Z,68.21
2018-05-29T03:47:22.796Z,68.3
2018-05-29T03:47:48.957Z,67.63
2018-05-29T03:48:15.116Z,67.14
2018-05-29T03:48:41.281Z,67.43
2018-05-29T03:49:07.442Z,67.66
2018-05-29T03:49:33.590Z,67.66
2018-05-29T03:49:59.777Z,67.18
2018-05-29T03:50:25.939Z,67.33
2018-05-29T03:50:52.081Z,67.14
2018-05-29T03:51:18.261Z,67.27
2018-05-29T03:51:44.415Z,67.46
2018-05-29T03:52:10.551Z,67.24
2018-05-29T03:52:36.693Z,67.46
2018-05-29T03:53:03.005Z,67.43
2018-05-29T03:53:29.142Z,67.46
2018-05-29T03:53:55.528Z,67.37
2018-05-29T03:54:21.741Z,67.56
2018-05-29T03:54:48.196Z,67.56
2018-05-29T03:55:14.668Z,67.56
2018-05-29T03:55:40.862Z,67.18
2018-05-29T03:56:07.041Z,67.56
2018-05-29T03:56:33.311Z,67.27
2018-05-29T03:56:59.517Z,67.53
2018-05-29T03:57:25.669Z,67.43
2018-05-29T03:57:51.827Z,67.91
2018-05-29T03:58:17.983Z,67.33
2018-05-29T03:58:44.132Z,67.85
2018-05-29T03:59:10.281Z,67.27
2018-05-29T03:59:36.440Z,67.76
2018-05-29T04:00:02.598Z,67.27
2018-05-29T04:00:28.741Z,67.56
2018-05-29T04:00:54.937Z,67.27
2018-05-29T04:01:21.075Z,67.27
2018-05-29T04:01:47.245Z,67.46
2018-05-29T04:02:13.437Z,67.37
2018-05-29T04:02:39.611Z,66.88
2018-05-29T04:03:05.811Z,66.6
2018-05-29T04:03:31.970Z,66.88
2018-05-29T04:03:58.110Z,66.69
2018-05-29T04:04:24.245Z,67.08
2018-05-29T04:04:50.395Z,66.88
2018-05-29T04:05:16.534Z,67.08
2018-05-29T04:05:42.697Z,66.69
2018-05-29T04:06:08.835Z,66.5
2018-05-29T04:06:34.997Z,66.5
2018-05-29T04:07:01.144Z,66.34
2018-05-29T04:07:27.369Z,66.98
2018-05-29T04:07:53.446Z,66.98
2018-05-29T04:08:19.619Z,66.2
2018-05-29T04:08:45.783Z,66.34
2018-05-29T04:09:11.954Z,66.88
2018-05-29T04:09:38.131Z,66.6
2018-05-29T04:10:04.358Z,66.88
2018-05-29T04:10:30.428Z,67.08
2018-05-29T04:10:56.571Z,66.69
2018-05-29T04:11:22.720Z,67.37
2018-05-29T04:11:48.896Z,67.85
2018-05-29T04:12:15.067Z,67.66
2018-05-29T04:12:41.204Z,67.43
2018-05-29T04:13:07.432Z,67.27
2018-05-29T04:13:33.565Z,67.46
2018-05-29T04:13:59.744Z,67.27
2018-05-29T04:14:25.920Z,67.46
2018-05-29T04:14:52.090Z,67.56
2018-05-29T04:15:18.251Z,67.27
2018-05-29T04:15:44.421Z,67.95
2018-05-29T04:16:10.535Z,67.27
2018-05-29T04:16:36.678Z,67.66
2018-05-29T04:17:02.871Z,67.18
2018-05-29T04:17:28.959Z,67.66
2018-05-29T04:17:55.101Z,67.08
2018-05-29T04:18:21.264Z,67.76
2018-05-29T04:18:47.434Z,67.46
2018-05-29T04:19:13.596Z,67.46
2018-05-29T04:19:39.740Z,67.56
2018-05-29T04:20:05.876Z,67.56
2018-05-29T04:20:32.051Z,67.56
2018-05-29T04:20:58.161Z,67.46
2018-05-29T04:21:24.337Z,67.66
2018-05-29T04:21:50.480Z,67.56
2018-05-29T04:22:16.621Z,67.08
2018-05-29T04:22:42.788Z,67.08
2018-05-29T04:23:08.957Z,67.08
2018-05-29T04:23:35.130Z,67.56
2018-05-29T04:24:01.273Z,67.66
2018-05-29T04:24:27.413Z,67.27
2018-05-29T04:24:53.570Z,67.46
2018-05-29T04:25:19.715Z,67.37
2018-05-29T04:25:45.861Z,67.08
2018-05-29T04:26:12.005Z,66.88
2018-05-29T04:26:38.233Z,67.08
2018-05-29T04:27:04.391Z,66.69
2018-05-29T04:27:30.538Z,66.6
2018-05-29T04:27:56.714Z,66.98
2018-05-29T04:28:22.849Z,66.5
2018-05-29T04:28:48.996Z,66.69
2018-05-29T04:29:15.133Z,67.11
2018-05-29T04:29:41.279Z,66.69
2018-05-29T04:30:07.439Z,67.08
2018-05-29T04:30:33.590Z,66.6
2018-05-29T04:30:59.726Z,66.6
2018-05-29T04:31:25.864Z,67.08
2018-05-29T04:31:52.008Z,67.27
2018-05-29T04:32:18.157Z,67.18
2018-05-29T04:32:44.300Z,67.66
2018-05-29T04:33:10.446Z,67.66
2018-05-29T04:33:36.607Z,67.46
2018-05-29T04:34:02.746Z,67.56
2018-05-29T04:34:28.916Z,67.46
2018-05-29T04:34:55.061Z,67.56
2018-05-29T04:35:21.203Z,67.46
2018-05-29T04:35:47.345Z,67.46
2018-05-29T04:36:13.487Z,67.18
2018-05-29T04:36:39.622Z,67.37
2018-05-29T04:37:05.789Z,67.37
2018-05-29T04:37:31.958Z,67.27
2018-05-29T04:37:58.128Z,67.27
2018-05-29T04:38:24.290Z,67.37
2018-05-29T04:38:50.437Z,66.98
2018-05-29T04:39:16.582Z,67.18
2018-05-29T04:39:42.750Z,67.37
2018-05-29T04:40:08.890Z,67.08
2018-05-29T04:40:35.061Z,67.85
2018-05-29T04:41:01.203Z,67.56
2018-05-29T04:41:27.342Z,67.56
2018-05-29T04:41:53.529Z,67.21
2018-05-29T04:42:19.664Z,66.69
2018-05-29T04:42:45.802Z,66.82
2018-05-29T04:43:11.973Z,66.98
2018-05-29T04:43:38.120Z,67.08
2018-05-29T04:44:04.257Z,66.98
2018-05-29T04:44:30.418Z,66.78
2018-05-29T04:44:56.572Z,66.98
2018-05-29T04:45:22.704Z,66.53
2018-05-29T04:45:48.849Z,66.72
2018-05-29T04:46:14.993Z,66.63
2018-05-29T04:46:41.134Z,66.08
2018-05-29T04:47:07.372Z,65.79
2018-05-29T04:47:33.471Z,64.47
2018-05-29T04:47:59.613Z,64.17
2018-05-29T04:48:25.780Z,63.49
2018-05-29T04:48:51.931Z,62.85
2018-05-29T04:49:18.096Z,62.95
2018-05-29T04:49:44.282Z,62.55
2018-05-29T04:50:10.402Z,62.85
2018-05-29T04:50:36.539Z,62.16
2018-05-29T04:51:02.723Z,62.07
2018-05-29T04:51:28.902Z,61.88
2018-05-29T04:51:55.035Z,61.78
2018-05-29T04:52:21.208Z,61.58
2018-05-29T04:52:47.699Z,61.19
2018-05-29T04:53:14.129Z,61.88
2018-05-29T04:53:40.303Z,61.88
2018-05-29T04:54:06.457Z,61.61
2018-05-29T04:54:32.666Z,61.04
2018-05-29T04:54:58.811Z,60.84
2018-05-29T04:55:24.951Z,60.94
2018-05-29T04:55:51.083Z,60.74
2018-05-29T04:56:17.224Z,60.35
2018-05-29T04:56:43.384Z,60.16
2018-05-29T04:57:09.560Z,60.25
2018-05-29T04:57:35.700Z,60.35
2018-05-29T04:58:01.834Z,60.74
2018-05-29T04:58:27.989Z,60.84
2018-05-29T04:58:54.132Z,60.94
2018-05-29T04:59:20.272Z,60.64
2018-05-29T04:59:46.439Z,61.22
2018-05-29T05:00:12.584Z,61.13
2018-05-29T05:00:38.757Z,60.55
2018-05-29T05:01:04.901Z,61.04
2018-05-29T05:01:31.038Z,60.94
2018-05-29T05:01:57.189Z,61.29
2018-05-29T05:02:23.351Z,61.58
2018-05-29T05:02:49.485Z,62.43
2018-05-29T05:03:15.635Z,62.72
2018-05-29T05:03:41.804Z,63.1
2018-05-29T05:04:07.946Z,62.82
2018-05-29T05:04:34.084Z,63.01
2018-05-29T05:05:00.255Z,62.52
2018-05-29T05:05:26.394Z,63.01
2018-05-29T05:05:52.534Z,62.72
2018-05-29T05:06:18.699Z,63.01
2018-05-29T05:06:44.847Z,63.56
2018-05-29T05:07:11.013Z,63.46
2018-05-29T05:07:37.201Z,63.65
2018-05-29T05:08:03.343Z,63.65
2018-05-29T05:08:29.492Z,64.04
2018-05-29T05:08:55.695Z,64.5
2018-05-29T05:09:21.822Z,64.24
2018-05-29T05:09:47.970Z,64.59
2018-05-29T05:10:14.105Z,64.59
2018-05-29T05:10:40.242Z,64.2
2018-05-29T05:11:06.387Z,64.69
2018-05-29T05:11:32.528Z,64.5
2018-05-29T05:11:58.664Z,65.27
2018-05-29T05:12:24.814Z,65.37
2018-05-29T05:12:50.953Z,64.98
2018-05-29T05:13:17.091Z,64.79
2018-05-29T05:13:43.228Z,65.47
2018-05-29T05:14:09.398Z,65.66
2018-05-29T05:14:35.537Z,65.66
2018-05-29T05:15:01.678Z,64.79
2018-05-29T05:15:27.824Z,65.08
2018-05-29T05:15:53.963Z,64.53
2018-05-29T05:16:20.099Z,64.5
2018-05-29T05:16:46.245Z,64.3
2018-05-29T05:17:12.384Z,65.17
2018-05-29T05:17:38.523Z,65.08
2018-05-29T05:18:04.671Z,65.85
2018-05-29T05:18:30.814Z,65.56
2018-05-29T05:18:56.948Z,65.27
2018-05-29T05:19:23.121Z,65.56
2018-05-29T05:19:49.287Z,65.66
2018-05-29T05:20:15.457Z,65.47
2018-05-29T05:20:41.577Z,65.43
2018-05-29T05:21:07.715Z,66.24
2018-05-29T05:21:33.866Z,66.05
2018-05-29T05:22:00.051Z,66.05
2018-05-29T05:22:26.196Z,66.34
2018-05-29T05:22:52.363Z,66.2
2018-05-29T05:23:18.507Z,66.02
2018-05-29T05:23:44.668Z,66.2
2018-05-29T05:24:10.837Z,66.5
2018-05-29T05:24:36.978Z,66.78
2018-05-29T05:25:03.121Z,66.78
2018-05-29T05:25:29.270Z,66.69
2018-05-29T05:25:55.417Z,67.18
2018-05-29T05:26:21.580Z,66.5
2018-05-29T05:26:47.756Z,66.98
2018-05-29T05:27:13.897Z,66.88
2018-05-29T05:27:40.041Z,66.4
2018-05-29T05:28:06.207Z,66.69
2018-05-29T05:28:32.346Z,66.69
2018-05-29T05:28:58.498Z,66.3
2018-05-29T05:29:24.635Z,66.4
2018-05-29T05:29:50.776Z,66.4
2018-05-29T05:30:16.942Z,66.69
2018-05-29T05:30:43.101Z,66.5
2018-05-29T05:31:09.249Z,67.08
2018-05-29T05:31:35.390Z,66.69
2018-05-29T05:32:01.540Z,67.02
2018-05-29T05:32:27.684Z,66.34
2018-05-29T05:32:53.823Z,65.85
2018-05-29T05:33:19.972Z,66.05
2018-05-29T05:33:46.108Z,66.24
2018-05-29T05:34:12.255Z,66.14
2018-05-29T05:34:38.396Z,65.27
2018-05-29T05:35:04.528Z,65.66
2018-05-29T05:35:30.669Z,65.63
2018-05-29T05:35:56.837Z,65.66
2018-05-29T05:36:23.000Z,65.85
2018-05-29T05:36:49.166Z,66.05
2018-05-29T05:37:15.303Z,66.4
2018-05-29T05:37:41.457Z,66.3
2018-05-29T05:38:07.588Z,66.4
2018-05-29T05:38:33.732Z,66.6